createdAt,value
2018-10-21T00:01:05.126Z,85.02
2018-10-21T00:04:10.538Z,84.43
2018-10-21T00:07:16.266Z,84.24
2018-10-21T00:10:21.683Z,84.11
2018-10-21T00:13:27.418Z,83.62
2018-10-21T00:16:33.102Z,84.37
2018-10-21T00:19:38.544Z,83.63
2018-10-21T00:22:43.909Z,83.84
2018-10-21T00:25:49.433Z,83.97
2018-10-21T00:28:54.910Z,83.70
2018-10-21T00:32:00.282Z,84.27
2018-10-21T00:35:07.315Z,83.97
2018-10-21T00:38:12.777Z,84.04
2018-10-21T00:41:18.144Z,84.47
2018-10-21T00:44:23.546Z,84.01
2018-10-21T00:47:29.238Z,84.42
2018-10-21T00:50:34.674Z,83.73
2018-10-21T00:53:40.243Z,83.69
2018-10-21T00:56:47.018Z,83.53
2018-10-21T00:59:52.642Z,83.87
2018-10-21T01:02:58.499Z,83.68
2018-10-21T01:24:18.497Z,83.50
2018-10-21T01:27:23.853Z,83.56
2018-10-21T01:30:29.654Z,83.90
2018-10-21T01:33:35.037Z,85.03
2018-10-21T01:36:40.581Z,85.45
2018-10-21T01:40:54.698Z,84.51
2018-10-21T01:44:00.495Z,85.05
2018-10-21T01:47:05.997Z,84.78
2018-10-21T01:50:11.424Z,84.10
2018-10-21T01:53:17.723Z,84.59
2018-10-21T01:56:23.105Z,84.28
2018-10-21T01:59:28.581Z,84.29
2018-10-21T02:02:33.945Z,83.98
2018-10-21T02:05:39.934Z,84.29
2018-10-21T02:08:46.257Z,84.37
2018-10-21T02:11:51.667Z,83.80
2018-10-21T02:14:57.194Z,83.92
2018-10-21T02:18:02.582Z,84.09
2018-10-21T02:21:07.993Z,84.32
2018-10-21T02:24:13.847Z,83.61
2018-10-21T02:27:19.318Z,84.10
2018-10-21T02:30:27.899Z,84.10
2018-10-21T02:33:33.325Z,84.16
2018-10-21T02:36:38.861Z,83.62
2018-10-21T02:39:44.375Z,83.72
2018-10-21T02:42:49.744Z,84.29
2018-10-21T02:45:55.529Z,84.13
2018-10-21T02:49:01.640Z,84.66
2018-10-21T02:52:08.196Z,84.55
2018-10-21T02:55:13.598Z,84.82
2018-10-21T02:58:18.979Z,84.52
2018-10-21T03:01:24.393Z,84.08
2018-10-21T03:04:29.770Z,84.36
2018-10-21T03:07:35.154Z,83.88
2018-10-21T03:10:40.579Z,84.35
2018-10-21T03:13:46.565Z,84.56
2018-10-21T03:16:51.961Z,84.10
2018-10-21T03:19:57.458Z,84.49
2018-10-21T03:23:02.862Z,85.01
2018-10-21T03:26:08.893Z,85.22
2018-10-21T03:29:14.337Z,85.10
2018-10-21T03:32:19.718Z,84.73
2018-10-21T03:35:25.096Z,84.87
2018-10-21T03:38:30.659Z,84.13
2018-10-21T03:41:36.181Z,84.28
2018-10-21T03:44:41.558Z,85.04
2018-10-21T03:47:46.970Z,84.75
2018-10-21T03:50:52.419Z,84.28
2018-10-21T03:53:57.797Z,84.42
2018-10-21T03:57:03.134Z,83.41
2018-10-21T04:00:09.725Z,84.54
2018-10-21T04:03:15.790Z,84.36
2018-10-21T04:06:21.138Z,84.51
2018-10-21T04:09:26.562Z,84.27
2018-10-21T04:12:31.907Z,83.96
2018-10-21T04:15:37.290Z,84.21
2018-10-21T04:18:42.701Z,84.06
2018-10-21T04:21:48.041Z,84.07
2018-10-21T04:24:53.417Z,83.61
2018-10-21T04:27:59.822Z,84.12
2018-10-21T04:31:05.778Z,83.94
2018-10-21T04:34:11.227Z,83.88
2018-10-21T04:37:33.886Z,83.75
2018-10-21T04:40:39.369Z,84.04
2018-10-21T04:43:44.693Z,84.25
2018-10-21T04:46:50.498Z,84.14
2018-10-21T04:49:56.058Z,83.92
2018-10-21T04:53:01.406Z,83.17
2018-10-21T04:56:06.822Z,83.67
2018-10-21T04:59:12.257Z,83.84
2018-10-21T05:02:17.639Z,83.71
2018-10-21T05:05:23.002Z,84.01
2018-10-21T05:08:28.423Z,83.93
2018-10-21T05:11:33.786Z,83.50
2018-10-21T05:14:39.125Z,83.09
2018-10-21T05:17:44.494Z,83.50
2018-10-21T05:20:49.910Z,83.17
2018-10-21T05:23:55.442Z,83.99
2018-10-21T05:27:01.213Z,82.90
2018-10-21T05:30:08.046Z,83.52
2018-10-21T05:33:13.386Z,83.17
2018-10-21T05:36:18.891Z,83.39
2018-10-21T05:39:24.341Z,83.38
2018-10-21T05:42:29.718Z,83.84
2018-10-21T05:45:35.090Z,83.72
2018-10-21T05:48:40.467Z,83.40
2018-10-21T05:51:47.178Z,84.02
2018-10-21T05:54:52.886Z,83.99
2018-10-21T05:57:58.555Z,84.23
2018-10-21T06:01:04.122Z,83.72
2018-10-21T06:04:10.765Z,83.38
2018-10-21T06:07:16.618Z,83.87
2018-10-21T06:10:22.004Z,84.21
2018-10-21T06:13:27.346Z,84.36
2018-10-21T06:16:36.637Z,83.86
2018-10-21T06:19:46.167Z,84.17
2018-10-21T06:22:51.578Z,84.25
2018-10-21T06:25:56.961Z,84.41
2018-10-21T06:29:02.354Z,84.26
2018-10-21T06:32:07.730Z,84.01
2018-10-21T06:35:13.129Z,83.84
2018-10-21T06:38:18.670Z,84.53
2018-10-21T06:41:24.377Z,84.07
2018-10-21T06:44:29.726Z,84.23
2018-10-21T06:47:35.118Z,84.93
2018-10-21T06:50:40.541Z,83.69
2018-10-21T06:53:45.997Z,84.59
2018-10-21T06:56:51.654Z,84.15
2018-10-21T06:59:57.186Z,84.92
2018-10-21T07:03:02.571Z,83.95
2018-10-21T07:06:13.506Z,84.36
2018-10-21T07:09:18.939Z,83.97
2018-10-21T07:12:24.341Z,84.20
2018-10-21T07:15:29.742Z,83.92
2018-10-21T07:18:35.305Z,84.09
2018-10-21T07:21:40.691Z,83.58
2018-10-21T07:24:46.690Z,83.33
2018-10-21T07:27:52.114Z,83.84
2018-10-21T07:30:58.002Z,83.43
2018-10-21T07:34:03.662Z,83.13
2018-10-21T07:37:09.290Z,82.93
2018-10-21T07:40:14.924Z,83.23
2018-10-21T07:43:20.470Z,83.30
2018-10-21T07:46:25.865Z,82.19
2018-10-21T07:49:31.333Z,82.29
2018-10-21T07:52:36.758Z,82.90
2018-10-21T07:55:42.862Z,82.52
2018-10-21T07:58:48.501Z,81.67
2018-10-21T08:01:54.390Z,81.95
2018-10-21T08:04:59.757Z,80.91
2018-10-21T08:08:23.887Z,81.19
2018-10-21T08:11:29.320Z,81.58
2018-10-21T08:14:34.738Z,80.90
2018-10-21T08:17:40.307Z,80.35
2018-10-21T08:20:46.990Z,80.40
2018-10-21T08:23:52.593Z,80.34
2018-10-21T08:26:58.285Z,79.67
2018-10-21T08:30:03.837Z,80.10
2018-10-21T08:33:09.417Z,80.65
2018-10-21T08:36:14.822Z,79.51
2018-10-21T08:39:20.299Z,79.07
2018-10-21T08:42:25.718Z,79.43
2018-10-21T08:45:31.098Z,80.01
2018-10-21T08:48:36.566Z,80.07
2018-10-21T08:51:41.931Z,79.63
2018-10-21T08:54:47.317Z,79.35
2018-10-21T08:57:52.674Z,79.53
2018-10-21T09:00:58.178Z,79.14
2018-10-21T09:04:03.793Z,80.06
2018-10-21T09:07:10.193Z,80.22
2018-10-21T09:10:17.165Z,80.18
2018-10-21T09:13:22.643Z,79.23
2018-10-21T09:16:28.071Z,78.63
2018-10-21T09:19:33.982Z,78.32
2018-10-21T09:22:39.552Z,79.22
2018-10-21T09:25:45.855Z,78.85
2018-10-21T09:28:51.305Z,78.60
2018-10-21T09:31:56.690Z,78.42
2018-10-21T09:35:04.541Z,78.50
2018-10-21T09:38:09.909Z,77.21
2018-10-21T09:41:15.326Z,77.18
2018-10-21T09:44:20.903Z,77.19
2018-10-21T09:47:26.267Z,76.78
2018-10-21T09:50:31.719Z,76.70
2018-10-21T09:53:37.070Z,74.94
2018-10-21T09:56:42.453Z,74.65
2018-10-21T09:59:47.912Z,74.94
2018-10-21T10:02:58.553Z,75.63
2018-10-21T10:06:03.918Z,74.90
2018-10-21T10:09:12.032Z,75.17
2018-10-21T10:12:17.398Z,74.14
2018-10-21T10:15:22.830Z,74.58
2018-10-21T10:18:28.823Z,74.57
2018-10-21T10:21:34.873Z,74.43
2018-10-21T10:24:40.251Z,74.80
2018-10-21T10:27:45.638Z,74.44
2018-10-21T10:30:51.131Z,73.04
2018-10-21T10:33:56.651Z,73.13
2018-10-21T10:37:02.013Z,72.09
2018-10-21T10:40:11.269Z,72.28
2018-10-21T10:43:16.885Z,70.98
2018-10-21T10:46:22.422Z,70.70
2018-10-21T10:49:27.893Z,70.24
2018-10-21T10:52:33.338Z,71.05
2018-10-21T10:55:43.727Z,70.38
2018-10-21T10:58:49.122Z,71.16
2018-10-21T11:01:54.633Z,70.36
2018-10-21T11:04:59.993Z,70.50
2018-10-21T11:08:05.565Z,70.07
2018-10-21T11:11:10.957Z,70.07
2018-10-21T11:14:16.318Z,69.34
2018-10-21T11:17:21.966Z,67.91
2018-10-21T11:20:29.550Z,66.62
2018-10-21T11:23:35.676Z,65.88
2018-10-21T11:26:41.126Z,65.98
2018-10-21T11:29:47.719Z,64.83
2018-10-21T11:32:53.079Z,63.84
2018-10-21T11:35:58.644Z,63.69
2018-10-21T11:39:05.193Z,62.97
2018-10-21T11:42:10.566Z,62.01
2018-10-21T11:45:15.922Z,62.71
2018-10-21T11:48:21.546Z,63.21
2018-10-21T11:51:26.958Z,63.07
2018-10-21T11:54:32.294Z,63.82
2018-10-21T11:57:38.455Z,62.85
2018-10-21T12:00:45.030Z,63.08
2018-10-21T12:03:50.744Z,63.75
2018-10-21T12:06:56.167Z,64.44
2018-10-21T12:10:01.846Z,64.58
2018-10-21T12:13:07.722Z,63.85
2018-10-21T12:16:13.162Z,62.97
2018-10-21T12:19:18.839Z,63.22
2018-10-21T12:22:24.563Z,63.69
2018-10-21T12:25:30.036Z,63.69
2018-10-21T12:28:35.657Z,63.96
2018-10-21T12:31:41.085Z,63.28
2018-10-21T12:34:46.761Z,63.33
2018-10-21T12:37:52.765Z,62.54
2018-10-21T12:40:58.379Z,62.06
2018-10-21T12:44:04.338Z,61.82
2018-10-21T12:47:09.772Z,62.49
2018-10-21T12:50:15.321Z,62.21
2018-10-21T12:53:20.694Z,62.76
2018-10-21T12:56:26.197Z,62.01
2018-10-21T12:59:31.546Z,62.09
2018-10-21T13:02:36.937Z,62.18
2018-10-21T13:05:42.569Z,62.95
2018-10-21T13:08:48.018Z,63.12
2018-10-21T13:11:53.415Z,63.29
2018-10-21T13:14:58.783Z,62.44
2018-10-21T13:18:05.301Z,63.11
2018-10-21T13:21:10.659Z,63.69
2018-10-21T13:24:16.045Z,64.00
2018-10-21T13:27:21.453Z,63.86
2018-10-21T13:30:26.828Z,64.75
2018-10-21T13:33:32.234Z,64.55
2018-10-21T13:36:37.677Z,63.87
2018-10-21T13:39:43.795Z,63.72
2018-10-21T13:42:49.243Z,64.32
2018-10-21T13:45:55.783Z,64.28
2018-10-21T13:49:01.604Z,64.08
2018-10-21T13:52:07.522Z,64.26
2018-10-21T13:55:13.617Z,65.30
2018-10-21T13:58:19.762Z,64.99
2018-10-21T14:01:25.185Z,64.63
2018-10-21T14:04:30.725Z,65.01
2018-10-21T14:07:36.150Z,65.66
2018-10-21T14:10:41.638Z,65.50
2018-10-21T14:13:47.070Z,65.22
2018-10-21T14:16:52.438Z,64.36
2018-10-21T14:19:57.851Z,64.42
2018-10-21T14:23:04.198Z,64.43
2018-10-21T14:26:09.553Z,64.14
2018-10-21T14:29:15.025Z,64.12
2018-10-21T14:32:20.431Z,64.10
2018-10-21T14:35:25.796Z,64.77
2018-10-21T14:38:32.143Z,63.26
2018-10-21T14:41:37.933Z,63.85
2018-10-21T14:44:43.339Z,63.33
2018-10-21T14:47:48.734Z,63.62
2018-10-21T14:50:54.174Z,63.47
2018-10-21T14:53:59.756Z,63.67
2018-10-21T14:57:06.106Z,63.28
2018-10-21T15:00:14.307Z,64.54
2018-10-21T15:03:19.957Z,64.83
2018-10-21T15:06:25.986Z,65.34
2018-10-21T15:09:31.389Z,65.60
2018-10-21T15:12:36.992Z,65.51
2018-10-21T15:15:42.412Z,64.96
2018-10-21T15:18:48.030Z,65.16
2018-10-21T15:21:53.381Z,64.63
2018-10-21T15:24:58.746Z,64.63
2018-10-21T15:28:04.832Z,64.89
2018-10-21T15:31:10.423Z,64.56
2018-10-21T15:34:16.204Z,64.88
2018-10-21T15:37:21.709Z,63.77
2018-10-21T15:40:27.202Z,64.11
2018-10-21T15:43:32.629Z,64.50
2018-10-21T15:46:38.009Z,63.65
2018-10-21T15:49:43.413Z,63.79
2018-10-21T15:52:48.798Z,63.56
2018-10-21T15:55:54.235Z,63.02
2018-10-21T15:58:59.949Z,63.81
2018-10-21T16:02:05.851Z,63.38
2018-10-21T16:05:12.057Z,63.81
2018-10-21T16:08:17.479Z,63.17
2018-10-21T16:11:22.901Z,63.41
2018-10-21T16:14:28.318Z,64.36
2018-10-21T16:17:33.857Z,63.52
2018-10-21T16:20:39.272Z,63.22
2018-10-21T16:23:44.705Z,63.45
2018-10-21T16:26:50.081Z,63.53
2018-10-21T16:29:55.606Z,63.66
2018-10-21T16:33:01.183Z,63.42
2018-10-21T16:36:06.617Z,63.91
2018-10-21T16:39:12.420Z,64.76
2018-10-21T16:42:18.004Z,64.91
2018-10-21T16:45:23.389Z,64.56
2018-10-21T16:48:28.798Z,64.42
2018-10-21T16:51:34.236Z,64.82
2018-10-21T16:54:39.838Z,64.63
2018-10-21T16:57:45.350Z,65.18
2018-10-21T17:00:50.951Z,65.85
2018-10-21T17:03:56.481Z,65.29
2018-10-21T17:07:01.895Z,65.50
2018-10-21T17:10:09.266Z,65.39
2018-10-21T17:13:14.502Z,64.71
2018-10-21T17:16:20.073Z,65.03
2018-10-21T17:19:25.554Z,65.20
2018-10-21T17:22:30.943Z,64.67
2018-10-21T17:25:36.339Z,65.75
2018-10-21T17:28:41.774Z,65.39
2018-10-21T17:31:47.174Z,65.39
2018-10-21T17:34:52.530Z,65.56
2018-10-21T17:37:57.905Z,65.46
2018-10-21T17:41:03.391Z,65.65
2018-10-21T17:44:08.749Z,65.25
2018-10-21T17:47:14.125Z,64.94
2018-10-21T17:50:19.573Z,65.21
2018-10-21T17:53:24.942Z,65.79
2018-10-21T17:56:30.334Z,65.78
2018-10-21T17:59:35.798Z,65.64
2018-10-21T18:02:45.673Z,66.43
2018-10-21T18:05:54.318Z,65.78
2018-10-21T18:09:01.426Z,65.86
2018-10-21T18:12:07.586Z,65.71
2018-10-21T18:15:13.416Z,66.50
2018-10-21T18:18:18.882Z,65.70
2018-10-21T18:21:24.218Z,65.78
2018-10-21T18:24:29.587Z,65.82
2018-10-21T18:27:34.986Z,64.82
2018-10-21T18:30:40.368Z,65.23
2018-10-21T18:33:45.750Z,65.10
2018-10-21T18:36:51.081Z,65.06
2018-10-21T18:39:56.555Z,65.73
2018-10-21T18:43:02.154Z,64.46
2018-10-21T18:46:07.721Z,65.70
2018-10-21T18:49:13.480Z,65.88
2018-10-21T18:52:19.056Z,65.53
2018-10-21T18:55:24.605Z,65.34
2018-10-21T18:58:30.042Z,65.59
2018-10-21T19:01:35.594Z,65.90
2018-10-21T19:04:40.990Z,65.75
2018-10-21T19:07:46.701Z,65.54
2018-10-21T19:10:52.172Z,65.95
2018-10-21T19:13:58.242Z,65.76
2018-10-21T19:17:03.724Z,66.39
2018-10-21T19:20:12.101Z,67.00
2018-10-21T19:23:17.463Z,66.68
2018-10-21T19:26:22.810Z,66.52
2018-10-21T19:29:28.241Z,66.68
2018-10-21T19:32:33.610Z,66.39
2018-10-21T19:35:38.970Z,65.69
2018-10-21T19:38:44.494Z,66.70
2018-10-21T19:41:49.849Z,65.74
2018-10-21T19:44:55.213Z,65.31
2018-10-21T19:48:00.554Z,65.04
2018-10-21T19:51:06.193Z,65.10
2018-10-21T19:54:11.570Z,65.19
2018-10-21T19:57:16.908Z,65.18
2018-10-21T20:00:22.452Z,64.66
2018-10-21T20:03:27.985Z,64.74
2018-10-21T20:06:33.354Z,64.67
2018-10-21T20:09:38.885Z,65.10
2018-10-21T20:12:44.257Z,64.47
2018-10-21T20:15:49.653Z,64.48
2018-10-21T20:18:55.139Z,64.37
2018-10-21T20:22:00.660Z,64.21
2018-10-21T20:25:07.339Z,64.62
2018-10-21T20:28:12.887Z,65.21
2018-10-21T20:31:18.488Z,65.21
2018-10-21T20:34:23.995Z,64.80
2018-10-21T20:37:29.384Z,64.46
2018-10-21T20:40:34.879Z,64.27
2018-10-21T20:43:40.315Z,64.91
2018-10-21T20:46:45.889Z,64.57
2018-10-21T20:49:51.343Z,64.78
2018-10-21T20:52:56.706Z,64.87
2018-10-21T21:01:37.246Z,64.57
2018-10-21T21:04:43.022Z,65.20
2018-10-21T21:07:48.398Z,65.81
2018-10-21T21:10:53.876Z,65.43
2018-10-21T21:13:59.645Z,65.57
2018-10-21T21:17:05.762Z,66.27
2018-10-21T21:20:11.558Z,65.59
2018-10-21T21:23:16.931Z,65.99
2018-10-21T21:26:22.576Z,66.81
2018-10-21T21:29:28.065Z,66.61
2018-10-21T21:32:33.443Z,66.29
2018-10-21T21:35:38.851Z,67.04
2018-10-21T21:38:44.905Z,67.26
2018-10-21T21:41:50.375Z,66.51
2018-10-21T21:44:55.753Z,67.26
2018-10-21T21:48:01.138Z,67.01
2018-10-21T21:51:07.078Z,67.68
2018-10-21T21:54:13.701Z,67.55
2018-10-21T21:57:19.294Z,67.68
2018-10-21T22:00:25.146Z,68.07
2018-10-21T22:03:30.573Z,67.69
2018-10-21T22:06:35.974Z,68.27
2018-10-21T22:09:41.527Z,68.36
2018-10-21T22:12:46.902Z,69.07
2018-10-21T22:15:52.294Z,69.23
2018-10-21T22:18:57.655Z,69.32
2018-10-21T22:22:03.107Z,69.72
2018-10-21T22:25:09.010Z,70.63
2018-10-21T22:28:14.578Z,70.70
2018-10-21T22:31:20.137Z,70.99
2018-10-21T22:34:25.539Z,71.45
2018-10-21T22:37:30.936Z,70.55
2018-10-21T22:40:36.428Z,70.86
2018-10-21T22:43:41.834Z,70.47
2018-10-21T22:46:47.229Z,70.30
2018-10-21T22:49:52.999Z,69.67
2018-10-21T22:52:58.356Z,70.02
2018-10-21T22:56:03.755Z,70.21
2018-10-21T22:59:09.561Z,69.99
2018-10-21T23:02:15.218Z,70.10
2018-10-21T23:05:21.034Z,70.30
2018-10-21T23:08:26.492Z,70.53
2018-10-21T23:11:31.847Z,70.59
2018-10-21T23:14:37.493Z,70.20
2018-10-21T23:17:42.858Z,70.93
2018-10-21T23:20:48.293Z,70.59
2018-10-21T23:23:53.642Z,69.99
2018-10-21T23:26:59.025Z,70.38
2018-10-21T23:30:04.484Z,70.64
2018-10-21T23:33:10.019Z,70.25
2018-10-21T23:36:15.464Z,69.78
2018-10-21T23:39:21.063Z,69.59
2018-10-21T23:42:26.434Z,69.42
2018-10-21T23:45:31.794Z,69.64
2018-10-21T23:48:37.211Z,70.00
2018-10-21T23:51:43.461Z,69.16
2018-10-21T23:54:48.865Z,69.30
2018-10-21T23:57:54.269Z,69.58
